Bright Pegasus — 3FJQ4 — position and weather

sailwx.info

Track history (hours):
 
Tides and Currents Weather Stations Pressure Air Temp Water Temp Dewpoint Dewpoint Depression Visibility Wind Speed Wind Dir Waves Ship Positions

Bright Pegasus

Last reported at 2017-Oct-19 05:22 UTC. Time now 2017-Oct-19 13:04 UTC.
Position N 30°01' W 090°46'.

Length 229 m; draft 7.7 m.

Type: Ship. MMSI: 352971000.

Date/timePositionNaut miles runAvg speedWind from/ knotsBaromVisibWave heightAir tempDewpointWater temp
2017-Oct-19 05:22N 30°01' W 090°46'410.0
2017-Oct-19 04:57N 30°02' W 090°42'16 7.4
2017-Oct-19 02:43N 29°57' W 090°23'  
2017-Oct-13 04:52N 25°22' W 079°35'411.5
2017-Oct-13 04:30N 25°26' W 079°34'611.8
2017-Oct-13 04:00N 25°32' W 079°33'611.8
2017-Oct-13 03:30N 25°38' W 079°33'611.9
2017-Oct-13 03:00N 25°44' W 079°32'612.0
2017-Oct-13 02:30N 25°50' W 079°31'612.4
2017-Oct-13 02:00N 25°56' W 079°30'612.0
2017-Oct-13 01:30N 26°02' W 079°30'611.8
2017-Oct-13 01:00N 26°08' W 079°29'612.1
2017-Oct-13 00:30N 26°14' W 079°27'712.9
2017-Oct-13 00:00N 26°19' W 079°23'  
Track history (hours):
 
Tides and Currents Weather Stations Pressure Air Temp Water Temp Dewpoint Dewpoint Depression Visibility Wind Speed Wind Dir Waves Ship Positions

Bright Pegasus

Last reported at 2017-Oct-19 05:22 UTC. Time now 2017-Oct-19 13:04 UTC.
Position N 30°01' W 090°46'.

Length 229 m; draft 7.7 m.

Type: Ship. MMSI: 352971000.

Date/timePositionNaut miles runAvg speedWind from/ knotsBaromVisibWave heightAir tempDewpointWater temp
2017-Oct-19 05:22N 30°01' W 090°46'410.0
2017-Oct-19 04:57N 30°02' W 090°42'16 7.4
2017-Oct-19 02:43N 29°57' W 090°23'  
2017-Oct-13 04:52N 25°22' W 079°35'411.5
2017-Oct-13 04:30N 25°26' W 079°34'611.8
2017-Oct-13 04:00N 25°32' W 079°33'611.8
2017-Oct-13 03:30N 25°38' W 079°33'611.9
2017-Oct-13 03:00N 25°44' W 079°32'612.0
2017-Oct-13 02:30N 25°50' W 079°31'612.4
2017-Oct-13 02:00N 25°56' W 079°30'612.0
2017-Oct-13 01:30N 26°02' W 079°30'611.8
2017-Oct-13 01:00N 26°08' W 079°29'612.1
2017-Oct-13 00:30N 26°14' W 079°27'712.9
2017-Oct-13 00:00N 26°19' W 079°23'  

Dump ship's entire track history